sensor_id;sensor_type;location;lat;lon;timestamp;pressure;altitude;pressure_sealevel;temperature;humidity
47330;BME280;33060;50.178;7.570;2023-02-02T00:01:49;97502.41;;;4.76;99.03
47330;BME280;33060;50.178;7.570;2023-02-02T00:04:20;97501.09;;;4.66;100.00
47330;BME280;33060;50.178;7.570;2023-02-02T00:06:47;97512.69;;;4.59;100.00
47330;BME280;33060;50.178;7.570;2023-02-02T00:09:16;97517.00;;;4.60;100.00
47330;BME280;33060;50.178;7.570;2023-02-02T00:11:44;97510.13;;;4.58;100.00
47330;BME280;33060;50.178;7.570;2023-02-02T00:14:11;97501.31;;;4.60;100.00
47330;BME280;33060;50.178;7.570;2023-02-02T00:19:15;97496.97;;;4.61;100.00
47330;BME280;33060;50.178;7.570;2023-02-02T00:21:43;97497.84;;;4.60;100.00
47330;BME280;33060;50.178;7.570;2023-02-02T00:24:11;97506.59;;;4.59;100.00
47330;BME280;33060;50.178;7.570;2023-02-02T00:26:40;97503.16;;;4.58;100.00
47330;BME280;33060;50.178;7.570;2023-02-02T00:29:12;97501.44;;;4.57;100.00
47330;BME280;33060;50.178;7.570;2023-02-02T00:31:39;97499.13;;;4.49;100.00
47330;BME280;33060;50.178;7.570;2023-02-02T00:34:06;97507.81;;;4.50;100.00
47330;BME280;33060;50.178;7.570;2023-02-02T00:36:33;97519.00;;;4.53;100.00
47330;BME280;33060;50.178;7.570;2023-02-02T00:38:59;97508.44;;;4.57;100.00
47330;BME280;33060;50.178;7.570;2023-02-02T00:41:26;97502.50;;;4.53;100.00
47330;BME280;33060;50.178;7.570;2023-02-02T00:43:53;97511.19;;;4.53;100.00
47330;BME280;33060;50.178;7.570;2023-02-02T00:46:39;97510.25;;;4.54;100.00
47330;BME280;33060;50.178;7.570;2023-02-02T00:49:07;97505.69;;;4.60;100.00
47330;BME280;33060;50.178;7.570;2023-02-02T00:51:35;97509.28;;;4.57;100.00
47330;BME280;33060;50.178;7.570;2023-02-02T00:54:03;97504.25;;;4.52;100.00
47330;BME280;33060;50.178;7.570;2023-02-02T00:56:30;97500.78;;;4.52;100.00
47330;BME280;33060;50.178;7.570;2023-02-02T00:58:56;97501.63;;;4.52;100.00
47330;BME280;33060;50.178;7.570;2023-02-02T01:01:23;97498.75;;;4.59;100.00
47330;BME280;33060;50.178;7.570;2023-02-02T01:03:50;97494.47;;;4.58;100.00
47330;BME280;33060;50.178;7.570;2023-02-02T01:06:17;97498.91;;;4.56;100.00
47330;BME280;33060;50.178;7.570;2023-02-02T01:08:45;97505.19;;;4.50;100.00
47330;BME280;33060;50.178;7.570;2023-02-02T01:11:11;97501.50;;;4.56;100.00
47330;BME280;33060;50.178;7.570;2023-02-02T01:13:38;97509.34;;;4.56;100.00
47330;BME280;33060;50.178;7.570;2023-02-02T01:16:05;97509.16;;;4.60;100.00
47330;BME280;33060;50.178;7.570;2023-02-02T01:18:32;97507.53;;;4.58;100.00
47330;BME280;33060;50.178;7.570;2023-02-02T01:21:02;97507.34;;;4.62;100.00
47330;BME280;33060;50.178;7.570;2023-02-02T01:23:29;97508.19;;;4.63;100.00
47330;BME280;33060;50.178;7.570;2023-02-02T01:25:58;97506.59;;;4.59;100.00
47330;BME280;33060;50.178;7.570;2023-02-02T01:28:25;97510.25;;;4.54;100.00
47330;BME280;33060;50.178;7.570;2023-02-02T01:30:53;97503.28;;;4.55;100.00
47330;BME280;33060;50.178;7.570;2023-02-02T01:33:21;97501.38;;;4.59;100.00
47330;BME280;33060;50.178;7.570;2023-02-02T01:35:50;97500.47;;;4.60;100.00
47330;BME280;33060;50.178;7.570;2023-02-02T01:38:18;97514.44;;;4.59;100.00
47330;BME280;33060;50.178;7.570;2023-02-02T01:40:49;97504.63;;;4.65;100.00
47330;BME280;33060;50.178;7.570;2023-02-02T01:43:25;97507.28;;;4.64;100.00
47330;BME280;33060;50.178;7.570;2023-02-02T01:45:54;97502.00;;;4.65;100.00
47330;BME280;33060;50.178;7.570;2023-02-02T01:48:28;97493.38;;;4.63;100.00
47330;BME280;33060;50.178;7.570;2023-02-02T01:50:59;97496.00;;;4.63;100.00
47330;BME280;33060;50.178;7.570;2023-02-02T01:53:27;97497.91;;;4.58;100.00
47330;BME280;33060;50.178;7.570;2023-02-02T01:55:55;97500.16;;;4.67;100.00
47330;BME280;33060;50.178;7.570;2023-02-02T01:58:25;97509.91;;;4.64;100.00
47330;BME280;33060;50.178;7.570;2023-02-02T02:00:54;97506.44;;;4.63;100.00
47330;BME280;33060;50.178;7.570;2023-02-02T02:03:24;97500.47;;;4.60;100.00
47330;BME280;33060;50.178;7.570;2023-02-02T02:06:04;97507.34;;;4.62;100.00
47330;BME280;33060;50.178;7.570;2023-02-02T02:11:13;97505.47;;;4.66;100.00
47330;BME280;33060;50.178;7.570;2023-02-02T02:13:40;97502.53;;;4.73;100.00
47330;BME280;33060;50.178;7.570;2023-02-02T02:22:15;97503.59;;;4.69;100.00
47330;BME280;33060;50.178;7.570;2023-02-02T02:25:42;97505.94;;;4.75;100.00
47330;BME280;33060;50.178;7.570;2023-02-02T02:28:52;97512.28;;;4.70;100.00
47330;BME280;33060;50.178;7.570;2023-02-02T02:33:58;97521.69;;;4.74;100.00
47330;BME280;33060;50.178;7.570;2023-02-02T02:36:39;97515.75;;;4.70;100.00
47330;BME280;33060;50.178;7.570;2023-02-02T02:41:54;97519.75;;;4.79;100.00
47330;BME280;33060;50.178;7.570;2023-02-02T02:44:25;97508.50;;;4.77;100.00
47330;BME280;33060;50.178;7.570;2023-02-02T02:46:53;97514.56;;;4.77;100.00
47330;BME280;33060;50.178;7.570;2023-02-02T02:49:20;97519.75;;;4.79;100.00
47330;BME280;33060;50.178;7.570;2023-02-02T02:51:52;97515.69;;;4.72;100.00
47330;BME280;33060;50.178;7.570;2023-02-02T02:54:34;97514.53;;;4.79;100.00
47330;BME280;33060;50.178;7.570;2023-02-02T03:00:15;97515.56;;;4.75;100.00
47330;BME280;33060;50.178;7.570;2023-02-02T03:02:56;97518.16;;;4.75;100.00
47330;BME280;33060;50.178;7.570;2023-02-02T03:08:47;97512.88;;;4.76;100.00
47330;BME280;33060;50.178;7.570;2023-02-02T03:11:14;97505.16;;;4.73;100.00
47330;BME280;33060;50.178;7.570;2023-02-02T03:13:42;97500.00;;;4.72;100.00
47330;BME280;33060;50.178;7.570;2023-02-02T03:16:09;97507.59;;;4.78;100.00
47330;BME280;33060;50.178;7.570;2023-02-02T03:18:36;97508.56;;;4.75;100.00
47330;BME280;33060;50.178;7.570;2023-02-02T03:21:03;97504.38;;;4.71;100.00
47330;BME280;33060;50.178;7.570;2023-02-02T03:23:30;97499.81;;;4.76;100.00
47330;BME280;33060;50.178;7.570;2023-02-02T03:25:57;97492.56;;;4.83;100.00
47330;BME280;33060;50.178;7.570;2023-02-02T03:28:25;97497.19;;;4.76;100.00
47330;BME280;33060;50.178;7.570;2023-02-02T03:30:53;97506.94;;;4.73;100.00
47330;BME280;33060;50.178;7.570;2023-02-02T03:33:20;97505.03;;;4.76;100.00
47330;BME280;33060;50.178;7.570;2023-02-02T03:35:47;97500.91;;;4.71;100.00
47330;BME280;33060;50.178;7.570;2023-02-02T03:38:13;97497.50;;;4.69;100.00
47330;BME280;33060;50.178;7.570;2023-02-02T03:40:40;97500.97;;;4.69;100.00
47330;BME280;33060;50.178;7.570;2023-02-02T03:43:07;97499.09;;;4.73;100.00
47330;BME280;33060;50.178;7.570;2023-02-02T03:45:34;97494.53;;;4.78;100.00
47330;BME280;33060;50.178;7.570;2023-02-02T03:48:04;97492.94;;;4.74;100.00
47330;BME280;33060;50.178;7.570;2023-02-02T03:50:31;97492.94;;;4.74;100.00
47330;BME280;33060;50.178;7.570;2023-02-02T03:52:58;97504.44;;;4.70;100.00
47330;BME280;33060;50.178;7.570;2023-02-02T03:55:25;97496.53;;;4.71;100.00
47330;BME280;33060;50.178;7.570;2023-02-02T03:57:52;97503.53;;;4.71;100.00
47330;BME280;33060;50.178;7.570;2023-02-02T04:00:19;97505.88;;;4.77;100.00
47330;BME280;33060;50.178;7.570;2023-02-02T04:02:46;97499.94;;;4.73;100.00
47330;BME280;33060;50.178;7.570;2023-02-02T04:05:12;97506.06;;;4.72;100.00
47330;BME280;33060;50.178;7.570;2023-02-02T04:07:39;97506.88;;;4.74;100.00
47330;BME280;33060;50.178;7.570;2023-02-02T04:10:06;97503.69;;;4.66;100.00
47330;BME280;33060;50.178;7.570;2023-02-02T04:12:32;97509.47;;;4.74;100.00
47330;BME280;33060;50.178;7.570;2023-02-02T04:14:59;97514.63;;;4.76;100.00
47330;BME280;33060;50.178;7.570;2023-02-02T04:17:25;97519.16;;;4.72;100.00
47330;BME280;33060;50.178;7.570;2023-02-02T04:19:52;97524.50;;;4.69;100.00
47330;BME280;33060;50.178;7.570;2023-02-02T04:22:24;97513.97;;;4.71;100.00
47330;BME280;33060;50.178;7.570;2023-02-02T04:24:51;97525.28;;;4.71;100.00
47330;BME280;33060;50.178;7.570;2023-02-02T04:27:18;97517.78;;;4.84;100.00
47330;BME280;33060;50.178;7.570;2023-02-02T04:29:45;97518.00;;;4.79;100.00
47330;BME280;33060;50.178;7.570;2023-02-02T04:32:15;97525.03;;;4.77;100.00
47330;BME280;33060;50.178;7.570;2023-02-02T04:34:43;97525.94;;;4.76;100.00
47330;BME280;33060;50.178;7.570;2023-02-02T04:37:10;97515.69;;;4.72;100.00
47330;BME280;33060;50.178;7.570;2023-02-02T04:39:37;97517.31;;;4.74;100.00
47330;BME280;33060;50.178;7.570;2023-02-02T04:42:04;97526.97;;;4.72;100.00
47330;BME280;33060;50.178;7.570;2023-02-02T04:44:30;97532.22;;;4.72;100.00
47330;BME280;33060;50.178;7.570;2023-02-02T04:46:57;97531.34;;;4.72;100.00
47330;BME280;33060;50.178;7.570;2023-02-02T04:49:24;97526.78;;;4.77;100.00
47330;BME280;33060;50.178;7.570;2023-02-02T04:51:50;97527.53;;;4.80;100.00
47330;BME280;33060;50.178;7.570;2023-02-02T04:54:17;97531.44;;;4.70;100.00
47330;BME280;33060;50.178;7.570;2023-02-02T04:56:43;97543.44;;;4.74;100.00
47330;BME280;33060;50.178;7.570;2023-02-02T04:59:10;97536.22;;;4.81;100.00
47330;BME280;33060;50.178;7.570;2023-02-02T05:01:37;97541.63;;;4.76;100.00
47330;BME280;33060;50.178;7.570;2023-02-02T05:04:03;97545.13;;;4.75;100.00
47330;BME280;33060;50.178;7.570;2023-02-02T05:06:30;97540.91;;;4.73;100.00
47330;BME280;33060;50.178;7.570;2023-02-02T05:08:57;97540.78;;;4.76;100.00
47330;BME280;33060;50.178;7.570;2023-02-02T05:11:23;97551.16;;;4.77;100.00
47330;BME280;33060;50.178;7.570;2023-02-02T05:13:52;97563.16;;;4.83;100.00
47330;BME280;33060;50.178;7.570;2023-02-02T05:16:20;97564.00;;;4.83;100.00
47330;BME280;33060;50.178;7.570;2023-02-02T05:18:50;97567.59;;;4.81;100.00
47330;BME280;33060;50.178;7.570;2023-02-02T05:21:18;97561.56;;;4.79;100.00
47330;BME280;33060;50.178;7.570;2023-02-02T05:23:45;97557.25;;;4.78;100.00
47330;BME280;33060;50.178;7.570;2023-02-02T05:26:15;97551.06;;;4.80;100.00
47330;BME280;33060;50.178;7.570;2023-02-02T05:28:42;97560.94;;;4.72;100.00
47330;BME280;33060;50.178;7.570;2023-02-02T05:31:09;97564.00;;;4.83;100.00
47330;BME280;33060;50.178;7.570;2023-02-02T05:33:35;97569.34;;;4.80;100.00
47330;BME280;33060;50.178;7.570;2023-02-02T05:36:03;97571.28;;;4.75;100.00
47330;BME280;33060;50.178;7.570;2023-02-02T05:38:30;97573.09;;;4.73;100.00
47330;BME280;33060;50.178;7.570;2023-02-02T05:40:57;97563.34;;;4.78;100.00
47330;BME280;33060;50.178;7.570;2023-02-02T05:43:25;97569.16;;;4.85;100.00
47330;BME280;33060;50.178;7.570;2023-02-02T05:45:51;97567.53;;;4.82;100.00
47330;BME280;33060;50.178;7.570;2023-02-02T05:48:19;97563.34;;;4.78;100.00
47330;BME280;33060;50.178;7.570;2023-02-02T05:53:33;97561.50;;;4.80;100.00
47330;BME280;33060;50.178;7.570;2023-02-02T05:55:59;97563.38;;;4.77;100.00
47330;BME280;33060;50.178;7.570;2023-02-02T05:58:26;97572.81;;;4.81;100.00
47330;BME280;33060;50.178;7.570;2023-02-02T06:00:53;97571.75;;;4.85;100.00
47330;BME280;33060;50.178;7.570;2023-02-02T06:03:22;97585.03;;;4.80;100.00
47330;BME280;33060;50.178;7.570;2023-02-02T06:05:49;97592.09;;;4.78;100.00
47330;BME280;33060;50.178;7.570;2023-02-02T06:08:15;97595.47;;;4.80;100.00
47330;BME280;33060;50.178;7.570;2023-02-02T06:10:42;97593.03;;;4.76;100.00
47330;BME280;33060;50.178;7.570;2023-02-02T06:13:09;97585.94;;;4.79;100.00
47330;BME280;33060;50.178;7.570;2023-02-02T06:15:36;97602.56;;;4.77;100.00
47330;BME280;33060;50.178;7.570;2023-02-02T06:18:03;97602.34;;;4.83;100.00
47330;BME280;33060;50.178;7.570;2023-02-02T06:20:33;97595.34;;;4.83;100.00
47330;BME280;33060;50.178;7.570;2023-02-02T06:23:00;97587.63;;;4.80;100.00
47330;BME280;33060;50.178;7.570;2023-02-02T06:25:27;97581.44;;;4.83;100.00
47330;BME280;33060;50.178;7.570;2023-02-02T06:27:57;97573.53;;;4.85;100.00
47330;BME280;33060;50.178;7.570;2023-02-02T06:30:24;97571.13;;;4.80;100.00
47330;BME280;33060;50.178;7.570;2023-02-02T06:32:51;97569.44;;;4.77;100.00
47330;BME280;33060;50.178;7.570;2023-02-02T06:35:18;97570.38;;;4.76;100.00
47330;BME280;33060;50.178;7.570;2023-02-02T06:37:45;97573.72;;;4.80;100.00
47330;BME280;33060;50.178;7.570;2023-02-02T06:40:12;97569.13;;;4.87;100.00
47330;BME280;33060;50.178;7.570;2023-02-02T06:42:39;97566.50;;;4.87;100.00
47330;BME280;33060;50.178;7.570;2023-02-02T06:45:06;97573.59;;;4.83;100.00
47330;BME280;33060;50.178;7.570;2023-02-02T06:47:33;97576.97;;;4.87;100.00
47330;BME280;33060;50.178;7.570;2023-02-02T06:50:00;97579.56;;;4.87;100.00
47330;BME280;33060;50.178;7.570;2023-02-02T06:52:26;97584.81;;;4.87;100.00
47330;BME280;33060;50.178;7.570;2023-02-02T06:54:53;97574.94;;;4.93;100.00
47330;BME280;33060;50.178;7.570;2023-02-02T06:57:20;97589.91;;;4.90;100.00
47330;BME280;33060;50.178;7.570;2023-02-02T06:59:46;97596.03;;;4.89;100.00
47330;BME280;33060;50.178;7.570;2023-02-02T07:02:13;97594.38;;;4.86;100.00
47330;BME280;33060;50.178;7.570;2023-02-02T07:04:40;97600.53;;;4.85;100.00
47330;BME280;33060;50.178;7.570;2023-02-02T07:07:06;97608.44;;;4.83;100.00
47330;BME280;33060;50.178;7.570;2023-02-02T07:09:34;97607.78;;;4.78;100.00
47330;BME280;33060;50.178;7.570;2023-02-02T07:12:01;97596.34;;;4.81;100.00
47330;BME280;33060;50.178;7.570;2023-02-02T07:14:27;97607.78;;;4.77;100.00
47330;BME280;33060;50.178;7.570;2023-02-02T07:16:54;97602.41;;;4.81;100.00
47330;BME280;33060;50.178;7.570;2023-02-02T07:19:20;97601.69;;;4.78;100.00
47330;BME280;33060;50.178;7.570;2023-02-02T07:21:47;97601.69;;;4.78;100.00
47330;BME280;33060;50.178;7.570;2023-02-02T07:24:14;97605.09;;;4.80;100.00
47330;BME280;33060;50.178;7.570;2023-02-02T07:26:40;97616.56;;;4.76;100.00
47330;BME280;33060;50.178;7.570;2023-02-02T07:29:11;97612.00;;;4.81;100.00
47330;BME280;33060;50.178;7.570;2023-02-02T07:31:39;97619.56;;;4.89;100.00
47330;BME280;33060;50.178;7.570;2023-02-02T07:34:05;97611.72;;;4.89;100.00
47330;BME280;33060;50.178;7.570;2023-02-02T07:36:32;97614.22;;;4.92;100.00
47330;BME280;33060;50.178;7.570;2023-02-02T07:38:59;97615.91;;;4.93;100.00
47330;BME280;33060;50.178;7.570;2023-02-02T07:41:29;97606.25;;;4.95;100.00
47330;BME280;33060;50.178;7.570;2023-02-02T07:43:56;97615.56;;;5.02;100.00
47330;BME280;33060;50.178;7.570;2023-02-02T07:46:23;97625.34;;;4.97;100.00
47330;BME280;33060;50.178;7.570;2023-02-02T07:48:52;97630.53;;;4.98;100.00
47330;BME280;33060;50.178;7.570;2023-02-02T07:51:20;97632.34;;;4.96;100.00
47330;BME280;33060;50.178;7.570;2023-02-02T07:53:48;97623.59;;;4.97;100.00
47330;BME280;33060;50.178;7.570;2023-02-02T07:56:20;97630.66;;;4.95;100.00
47330;BME280;33060;50.178;7.570;2023-02-02T07:58:50;97636.59;;;4.99;100.00
47330;BME280;33060;50.178;7.570;2023-02-02T08:01:17;97628.81;;;4.97;100.00
47330;BME280;33060;50.178;7.570;2023-02-02T08:03:46;97620.19;;;4.95;100.00
47330;BME280;33060;50.178;7.570;2023-02-02T08:06:24;97619.41;;;5.15;100.00
47330;BME280;33060;50.178;7.570;2023-02-02T08:08:51;97625.19;;;5.23;100.00
47330;BME280;33060;50.178;7.570;2023-02-02T08:11:20;97629.38;;;5.27;100.00
47330;BME280;33060;50.178;7.570;2023-02-02T08:13:55;97637.47;;;5.21;100.00
47330;BME280;33060;50.178;7.570;2023-02-02T08:16:23;97637.22;;;5.27;100.00
47330;BME280;33060;50.178;7.570;2023-02-02T08:18:50;97644.56;;;5.18;100.00
47330;BME280;33060;50.178;7.570;2023-02-02T08:21:17;97641.97;;;5.18;100.00
47330;BME280;33060;50.178;7.570;2023-02-02T08:23:45;97648.44;;;5.31;100.00
47330;BME280;33060;50.178;7.570;2023-02-02T08:26:17;97650.59;;;5.42;99.64
47330;BME280;33060;50.178;7.570;2023-02-02T08:28:47;97641.31;;;5.56;98.09
47330;BME280;33060;50.178;7.570;2023-02-02T08:31:17;97647.19;;;5.61;97.46
47330;BME280;33060;50.178;7.570;2023-02-02T08:33:45;97650.28;;;5.71;96.51
47330;BME280;33060;50.178;7.570;2023-02-02T08:36:13;97651.19;;;5.70;96.54
47330;BME280;33060;50.178;7.570;2023-02-02T08:38:40;97657.50;;;5.64;97.12
47330;BME280;33060;50.178;7.570;2023-02-02T08:41:08;97649.50;;;5.69;96.89
47330;BME280;33060;50.178;7.570;2023-02-02T08:43:36;97652.28;;;5.64;96.65
47330;BME280;33060;50.178;7.570;2023-02-02T08:46:03;97644.50;;;5.63;96.36
47330;BME280;33060;50.178;7.570;2023-02-02T08:48:33;97649.78;;;5.61;96.35
47330;BME280;33060;50.178;7.570;2023-02-02T08:51:00;97647.78;;;5.68;95.58
47330;BME280;33060;50.178;7.570;2023-02-02T08:53:27;97641.63;;;5.69;95.51
47330;BME280;33060;50.178;7.570;2023-02-02T08:56:02;97651.66;;;5.80;94.52
47330;BME280;33060;50.178;7.570;2023-02-02T08:58:30;97653.31;;;5.82;94.39
47330;BME280;33060;50.178;7.570;2023-02-02T09:01:09;97648.97;;;5.81;93.75
47330;BME280;33060;50.178;7.570;2023-02-02T09:03:38;97664.09;;;5.75;94.36
47330;BME280;33060;50.178;7.570;2023-02-02T09:06:07;97665.72;;;5.77;94.56
47330;BME280;33060;50.178;7.570;2023-02-02T09:08:34;97664.69;;;5.81;94.20
47330;BME280;33060;50.178;7.570;2023-02-02T09:11:09;97667.44;;;5.78;94.02
47330;BME280;33060;50.178;7.570;2023-02-02T09:13:37;97670.06;;;6.00;91.69
47330;BME280;33060;50.178;7.570;2023-02-02T09:16:08;97671.81;;;6.00;91.81
47330;BME280;33060;50.178;7.570;2023-02-02T09:18:35;97671.28;;;5.90;92.34
47330;BME280;33060;50.178;7.570;2023-02-02T09:21:05;97681.78;;;5.90;92.58
47330;BME280;33060;50.178;7.570;2023-02-02T09:23:33;97681.63;;;5.94;92.25
47330;BME280;33060;50.178;7.570;2023-02-02T09:26:26;97682.69;;;5.89;92.95
47330;BME280;33060;50.178;7.570;2023-02-02T09:28:59;97679.50;;;5.82;92.73
47330;BME280;33060;50.178;7.570;2023-02-02T09:31:29;97691.41;;;5.89;91.03
47330;BME280;33060;50.178;7.570;2023-02-02T09:33:59;97688.56;;;5.95;91.55
47330;BME280;33060;50.178;7.570;2023-02-02T09:36:27;97692.59;;;5.82;92.68
47330;BME280;33060;50.178;7.570;2023-02-02T09:38:54;97706.25;;;5.89;92.35
47330;BME280;33060;50.178;7.570;2023-02-02T09:41:33;97696.34;;;5.97;92.02
47330;BME280;33060;50.178;7.570;2023-02-02T09:46:58;97702.19;;;6.04;91.72
47330;BME280;33060;50.178;7.570;2023-02-02T09:52:19;97705.59;;;6.06;91.56
47330;BME280;33060;50.178;7.570;2023-02-02T09:54:49;97701.63;;;6.17;91.12
47330;BME280;33060;50.178;7.570;2023-02-02T09:57:23;97716.09;;;6.26;90.54
47330;BME280;33060;50.178;7.570;2023-02-02T09:59:51;97714.13;;;6.31;90.39
47330;BME280;33060;50.178;7.570;2023-02-02T10:02:41;97719.56;;;6.47;89.24
47330;BME280;33060;50.178;7.570;2023-02-02T10:05:15;97716.25;;;6.43;90.15
47330;BME280;33060;50.178;7.570;2023-02-02T10:07:47;97717.66;;;6.50;88.74
47330;BME280;33060;50.178;7.570;2023-02-02T10:10:26;97721.13;;;6.51;88.82
47330;BME280;33060;50.178;7.570;2023-02-02T10:13:18;97718.00;;;6.63;88.50
47330;BME280;33060;50.178;7.570;2023-02-02T10:16:12;97719.28;;;6.73;87.26
47330;BME280;33060;50.178;7.570;2023-02-02T10:18:50;97732.59;;;6.69;87.90
47330;BME280;33060;50.178;7.570;2023-02-02T10:21:31;97721.91;;;6.73;87.54
47330;BME280;33060;50.178;7.570;2023-02-02T10:24:01;97716.53;;;6.76;86.92
47330;BME280;33060;50.178;7.570;2023-02-02T10:26:49;97718.91;;;7.01;85.96
47330;BME280;33060;50.178;7.570;2023-02-02T10:35:02;97734.16;;;6.73;86.47
47330;BME280;33060;50.178;7.570;2023-02-02T10:38:02;97731.03;;;6.65;86.62
47330;BME280;33060;50.178;7.570;2023-02-02T10:46:16;97732.28;;;6.56;87.53
47330;BME280;33060;50.178;7.570;2023-02-02T10:48:46;97739.06;;;6.60;87.77
47330;BME280;33060;50.178;7.570;2023-02-02T10:51:26;97734.50;;;6.65;87.78
47330;BME280;33060;50.178;7.570;2023-02-02T10:53:56;97733.72;;;6.63;87.73
47330;BME280;33060;50.178;7.570;2023-02-02T10:56:30;97730.31;;;6.61;87.62
47330;BME280;33060;50.178;7.570;2023-02-02T10:59:12;97724.09;;;6.64;87.46
47330;BME280;33060;50.178;7.570;2023-02-02T11:01:40;97735.09;;;6.72;87.04
47330;BME280;33060;50.178;7.570;2023-02-02T11:04:08;97732.22;;;6.78;85.86
47330;BME280;33060;50.178;7.570;2023-02-02T11:06:54;97720.31;;;6.90;85.60
47330;BME280;33060;50.178;7.570;2023-02-02T11:09:31;97738.59;;;6.91;85.34
47330;BME280;33060;50.178;7.570;2023-02-02T11:12:34;97733.91;;;6.79;86.14
47330;BME280;33060;50.178;7.570;2023-02-02T11:15:05;97739.81;;;6.64;87.06
47330;BME280;33060;50.178;7.570;2023-02-02T11:17:32;97726.31;;;6.73;86.84
47330;BME280;33060;50.178;7.570;2023-02-02T11:20:00;97730.81;;;6.90;85.82
47330;BME280;33060;50.178;7.570;2023-02-02T11:22:36;97726.25;;;6.93;86.08
47330;BME280;33060;50.178;7.570;2023-02-02T11:25:06;97739.03;;;7.01;85.96
47330;BME280;33060;50.178;7.570;2023-02-02T11:27:41;97733.78;;;7.01;86.06
47330;BME280;33060;50.178;7.570;2023-02-02T11:30:23;97742.00;;;6.93;85.49
47330;BME280;33060;50.178;7.570;2023-02-02T11:32:53;97753.44;;;7.11;85.21
47330;BME280;33060;50.178;7.570;2023-02-02T11:35:23;97743.44;;;7.00;85.12
47330;BME280;33060;50.178;7.570;2023-02-02T11:38:08;97747.50;;;7.26;84.82
47330;BME280;33060;50.178;7.570;2023-02-02T11:45:56;97736.91;;;7.09;84.67
47330;BME280;33060;50.178;7.570;2023-02-02T11:48:30;97746.13;;;6.99;85.49
47330;BME280;33060;50.178;7.570;2023-02-02T11:50:59;97745.53;;;6.92;85.72
47330;BME280;33060;50.178;7.570;2023-02-02T11:53:35;97756.63;;;6.99;86.10
47330;BME280;33060;50.178;7.570;2023-02-02T11:56:10;97751.53;;;6.96;85.96
47330;BME280;33060;50.178;7.570;2023-02-02T11:58:51;97752.78;;;6.87;86.03
47330;BME280;33060;50.178;7.570;2023-02-02T12:03:55;97748.16;;;6.92;86.31
47330;BME280;33060;50.178;7.570;2023-02-02T12:06:42;97757.53;;;6.98;86.05
47330;BME280;33060;50.178;7.570;2023-02-02T12:09:16;97755.50;;;7.04;84.78
47330;BME280;33060;50.178;7.570;2023-02-02T12:12:06;97749.53;;;7.01;85.12
47330;BME280;33060;50.178;7.570;2023-02-02T12:28:22;97756.69;;;6.97;85.75
47330;BME280;33060;50.178;7.570;2023-02-02T12:36:17;97746.63;;;6.88;86.41
47330;BME280;33060;50.178;7.570;2023-02-02T12:42:18;97741.81;;;6.77;87.25
47330;BME280;33060;50.178;7.570;2023-02-02T12:50:02;97743.69;;;6.94;86.15
47330;BME280;33060;50.178;7.570;2023-02-02T12:52:48;97744.00;;;6.88;86.35
47330;BME280;33060;50.178;7.570;2023-02-02T12:55:32;97743.06;;;6.89;86.61
47330;BME280;33060;50.178;7.570;2023-02-02T13:01:00;97744.94;;;6.86;86.24
47330;BME280;33060;50.178;7.570;2023-02-02T13:09:16;97741.47;;;6.85;86.67
47330;BME280;33060;50.178;7.570;2023-02-02T13:11:50;97754.25;;;6.93;86.03
47330;BME280;33060;50.178;7.570;2023-02-02T13:14:23;97740.72;;;7.02;85.25
47330;BME280;33060;50.178;7.570;2023-02-02T13:16:53;97752.72;;;7.07;84.71
47330;BME280;33060;50.178;7.570;2023-02-02T13:19:30;97756.97;;;7.10;84.21
47330;BME280;33060;50.178;7.570;2023-02-02T13:21:59;97750.34;;;7.22;83.41
47330;BME280;33060;50.178;7.570;2023-02-02T13:24:30;97750.63;;;7.34;83.06
47330;BME280;33060;50.178;7.570;2023-02-02T13:26:59;97757.06;;;7.46;82.71
47330;BME280;33060;50.178;7.570;2023-02-02T13:29:34;97755.53;;;7.42;82.61
47330;BME280;33060;50.178;7.570;2023-02-02T13:32:27;97756.88;;;7.32;82.95
47330;BME280;33060;50.178;7.570;2023-02-02T13:35:09;97764.09;;;7.27;83.01
47330;BME280;33060;50.178;7.570;2023-02-02T13:37:43;97765.78;;;7.28;82.56
47330;BME280;33060;50.178;7.570;2023-02-02T13:48:28;97783.47;;;7.24;83.26
47330;BME280;33060;50.178;7.570;2023-02-02T14:01:46;97774.84;;;7.21;82.17
47330;BME280;33060;50.178;7.570;2023-02-02T14:04:23;97775.94;;;7.17;82.53
47330;BME280;33060;50.178;7.570;2023-02-02T14:07:00;97784.88;;;7.13;82.44
47330;BME280;33060;50.178;7.570;2023-02-02T14:09:34;97789.13;;;7.15;82.49
47330;BME280;33060;50.178;7.570;2023-02-02T14:12:08;97780.53;;;7.12;82.43
47330;BME280;33060;50.178;7.570;2023-02-02T14:14:37;97792.09;;;7.07;82.54
47330;BME280;33060;50.178;7.570;2023-02-02T14:20:00;97802.66;;;7.06;82.98
47330;BME280;33060;50.178;7.570;2023-02-02T14:22:46;97802.00;;;7.01;82.97
47330;BME280;33060;50.178;7.570;2023-02-02T14:27:57;97798.78;;;7.15;82.33
47330;BME280;33060;50.178;7.570;2023-02-02T14:30:30;97800.81;;;7.08;83.13
47330;BME280;33060;50.178;7.570;2023-02-02T14:33:17;97806.25;;;7.03;82.71
47330;BME280;33060;50.178;7.570;2023-02-02T14:41:56;97817.03;;;6.97;82.19
47330;BME280;33060;50.178;7.570;2023-02-02T14:47:57;97815.56;;;6.90;83.41
47330;BME280;33060;50.178;7.570;2023-02-02T14:56:03;97823.50;;;6.89;83.29
47330;BME280;33060;50.178;7.570;2023-02-02T14:58:34;97829.53;;;6.91;83.30
47330;BME280;33060;50.178;7.570;2023-02-02T15:01:22;97834.06;;;6.87;82.85
47330;BME280;33060;50.178;7.570;2023-02-02T15:06:32;97833.69;;;6.96;82.60
47330;BME280;33060;50.178;7.570;2023-02-02T15:17:28;97839.31;;;6.87;82.52
47330;BME280;33060;50.178;7.570;2023-02-02T15:25:30;97840.22;;;6.86;81.66
47330;BME280;33060;50.178;7.570;2023-02-02T15:28:09;97845.72;;;7.00;80.73
47330;BME280;33060;50.178;7.570;2023-02-02T15:30:42;97849.53;;;6.93;80.62
47330;BME280;33060;50.178;7.570;2023-02-02T15:33:37;97848.56;;;6.96;80.35
47330;BME280;33060;50.178;7.570;2023-02-02T15:36:11;97852.16;;;6.93;80.50
47330;BME280;33060;50.178;7.570;2023-02-02T15:38:40;97851.44;;;6.90;81.20
47330;BME280;33060;50.178;7.570;2023-02-02T15:41:30;97858.31;;;6.92;80.52
47330;BME280;33060;50.178;7.570;2023-02-02T15:43:58;97862.06;;;6.87;80.93
47330;BME280;33060;50.178;7.570;2023-02-02T15:46:31;97860.22;;;6.89;80.16
47330;BME280;33060;50.178;7.570;2023-02-02T15:52:02;97867.97;;;6.92;79.59